KCRX/CRX METAR and TAF weather

Enter ICAO airport designator
Station Type Date Time Source
KCRX METAR 2020/07/13 14:15 UTC NOAA

KCRX 131415Z AUTO 00000KT 10SM CLR 26/22 A2994 RMK AO2


Station Type Date Time Source
KCRX Decoded METAR 2020/07/13 14:15 UTC NOAA

Station name not available
Jul 13, 2020 - 10:15 AM EDT / 2020.07.13 1415 UTC
Wind: Calm:0
Visibility: 10 mile(s):0
Sky conditions: clear
Temperature: 78 F (26 C)
Dew Point: 71 F (22 C)
Relative Humidity: 78%
Pressure (altimeter): 29.94 in. Hg (1013 hPa)
ob: KCRX 131415Z AUTO 00000KT 10SM CLR 26/22 A2994 RMK AO2
cycle: 14

Station Type Date Time Source
KCRX TAF UTC NOAA

Error!

Example: see airport list